sensor_id;sensor_type;location;lat;lon;timestamp;temperature;humidity
21189;DHT22;39071;52.420;20.896;2023-03-01T00:01:27;-2.80;1.00
21189;DHT22;39071;52.420;20.896;2023-03-01T00:03:54;-2.80;1.00
21189;DHT22;39071;52.420;20.896;2023-03-01T00:06:20;-2.80;1.00
21189;DHT22;39071;52.420;20.896;2023-03-01T00:08:46;-2.80;1.00
21189;DHT22;39071;52.420;20.896;2023-03-01T00:11:18;-2.80;1.00
21189;DHT22;39071;52.420;20.896;2023-03-01T00:13:45;-2.80;1.00
21189;DHT22;39071;52.420;20.896;2023-03-01T00:16:17;-2.70;1.00
21189;DHT22;39071;52.420;20.896;2023-03-01T00:18:43;-2.70;1.00
21189;DHT22;39071;52.420;20.896;2023-03-01T00:21:08;-2.70;1.00
21189;DHT22;39071;52.420;20.896;2023-03-01T00:23:35;-2.70;1.00
21189;DHT22;39071;52.420;20.896;2023-03-01T00:26:02;-2.70;1.00
21189;DHT22;39071;52.420;20.896;2023-03-01T00:28:31;-2.70;1.00
21189;DHT22;39071;52.420;20.896;2023-03-01T00:31:05;-2.70;1.00
21189;DHT22;39071;52.420;20.896;2023-03-01T00:33:32;-2.80;1.00
21189;DHT22;39071;52.420;20.896;2023-03-01T00:35:58;-2.90;1.00
21189;DHT22;39071;52.420;20.896;2023-03-01T00:38:24;-2.90;1.00
21189;DHT22;39071;52.420;20.896;2023-03-01T00:40:50;-2.90;1.00
21189;DHT22;39071;52.420;20.896;2023-03-01T00:43:16;-2.90;1.00
21189;DHT22;39071;52.420;20.896;2023-03-01T00:45:41;-2.90;1.00
21189;DHT22;39071;52.420;20.896;2023-03-01T00:48:07;-2.90;1.00
21189;DHT22;39071;52.420;20.896;2023-03-01T00:50:33;-2.80;1.00
21189;DHT22;39071;52.420;20.896;2023-03-01T00:52:58;-2.80;1.00
21189;DHT22;39071;52.420;20.896;2023-03-01T00:55:25;-2.80;1.00
21189;DHT22;39071;52.420;20.896;2023-03-01T00:57:51;-2.80;1.00
21189;DHT22;39071;52.420;20.896;2023-03-01T01:00:18;-2.70;1.00
21189;DHT22;39071;52.420;20.896;2023-03-01T01:02:44;-2.80;1.00
21189;DHT22;39071;52.420;20.896;2023-03-01T01:05:10;-2.80;1.00
21189;DHT22;39071;52.420;20.896;2023-03-01T01:07:36;-2.90;1.00
21189;DHT22;39071;52.420;20.896;2023-03-01T01:10:02;-2.90;1.00
21189;DHT22;39071;52.420;20.896;2023-03-01T01:12:28;-2.90;1.00
21189;DHT22;39071;52.420;20.896;2023-03-01T01:14:53;-2.80;1.00
21189;DHT22;39071;52.420;20.896;2023-03-01T01:17:19;-2.80;1.00
21189;DHT22;39071;52.420;20.896;2023-03-01T01:19:45;-2.80;1.00
21189;DHT22;39071;52.420;20.896;2023-03-01T01:22:10;-2.80;1.00
21189;DHT22;39071;52.420;20.896;2023-03-01T01:24:36;-2.90;1.00
21189;DHT22;39071;52.420;20.896;2023-03-01T01:27:02;-2.90;1.00
21189;DHT22;39071;52.420;20.896;2023-03-01T01:29:28;-2.90;1.00
21189;DHT22;39071;52.420;20.896;2023-03-01T01:31:53;-2.90;1.00
21189;DHT22;39071;52.420;20.896;2023-03-01T01:34:21;-2.90;1.00
21189;DHT22;39071;52.420;20.896;2023-03-01T01:36:53;-3.00;1.00
21189;DHT22;39071;52.420;20.896;2023-03-01T01:39:20;-3.10;40.80
21189;DHT22;39071;52.420;20.896;2023-03-01T01:41:46;-3.00;55.50
21189;DHT22;39071;52.420;20.896;2023-03-01T01:44:21;-3.00;1.00
21189;DHT22;39071;52.420;20.896;2023-03-01T01:46:53;-2.90;1.00
21189;DHT22;39071;52.420;20.896;2023-03-01T01:49:40;-3.00;1.00
21189;DHT22;39071;52.420;20.896;2023-03-01T01:52:16;-3.00;1.00
21189;DHT22;39071;52.420;20.896;2023-03-01T01:54:50;-3.00;40.90
21189;DHT22;39071;52.420;20.896;2023-03-01T01:57:26;-3.00;23.50
21189;DHT22;39071;52.420;20.896;2023-03-01T01:59:56;-3.00;1.00
21189;DHT22;39071;52.420;20.896;2023-03-01T02:02:24;-2.70;65.50
21189;DHT22;39071;52.420;20.896;2023-03-01T02:04:55;-2.50;99.90
21189;DHT22;39071;52.420;20.896;2023-03-01T02:07:24;-3.00;99.90
21189;DHT22;39071;52.420;20.896;2023-03-01T02:09:52;-3.00;44.20
21189;DHT22;39071;52.420;20.896;2023-03-01T02:12:20;-3.00;1.00
21189;DHT22;39071;52.420;20.896;2023-03-01T02:14:47;-2.90;1.00
21189;DHT22;39071;52.420;20.896;2023-03-01T02:17:15;-2.90;1.00
21189;DHT22;39071;52.420;20.896;2023-03-01T02:22:33;-2.90;1.00
21189;DHT22;39071;52.420;20.896;2023-03-01T02:30:25;-2.90;1.00
21189;DHT22;39071;52.420;20.896;2023-03-01T02:32:52;-2.90;1.00
21189;DHT22;39071;52.420;20.896;2023-03-01T02:35:19;-2.90;1.00
21189;DHT22;39071;52.420;20.896;2023-03-01T02:37:45;-3.00;1.00
21189;DHT22;39071;52.420;20.896;2023-03-01T02:40:16;-3.00;1.00
21189;DHT22;39071;52.420;20.896;2023-03-01T02:42:52;-3.00;1.00
21189;DHT22;39071;52.420;20.896;2023-03-01T02:45:19;-3.00;1.00
21189;DHT22;39071;52.420;20.896;2023-03-01T02:47:45;-3.00;1.00
21189;DHT22;39071;52.420;20.896;2023-03-01T02:50:41;-3.00;1.00
21189;DHT22;39071;52.420;20.896;2023-03-01T02:53:15;-2.90;1.00
21189;DHT22;39071;52.420;20.896;2023-03-01T02:55:43;-2.90;1.00
21189;DHT22;39071;52.420;20.896;2023-03-01T02:58:09;-2.90;1.00
21189;DHT22;39071;52.420;20.896;2023-03-01T03:00:41;-2.90;1.00
21189;DHT22;39071;52.420;20.896;2023-03-01T03:03:13;-2.90;1.00
21189;DHT22;39071;52.420;20.896;2023-03-01T03:05:39;-2.90;1.00
21189;DHT22;39071;52.420;20.896;2023-03-01T03:08:04;-0.90;1.00
21189;DHT22;39071;52.420;20.896;2023-03-01T03:10:32;-2.90;1.00
21189;DHT22;39071;52.420;20.896;2023-03-01T03:13:04;-2.90;1.00
21189;DHT22;39071;52.420;20.896;2023-03-01T03:15:31;-2.90;1.00
21189;DHT22;39071;52.420;20.896;2023-03-01T03:17:58;-3.00;1.00
21189;DHT22;39071;52.420;20.896;2023-03-01T03:20:26;-3.00;1.00
21189;DHT22;39071;52.420;20.896;2023-03-01T03:22:54;-3.10;1.00
21189;DHT22;39071;52.420;20.896;2023-03-01T03:25:21;-3.20;99.90
21189;DHT22;39071;52.420;20.896;2023-03-01T03:27:48;-3.30;99.90
21189;DHT22;39071;52.420;20.896;2023-03-01T03:30:17;-3.30;1.00
21189;DHT22;39071;52.420;20.896;2023-03-01T03:32:46;-3.20;1.00
21189;DHT22;39071;52.420;20.896;2023-03-01T03:35:21;-3.10;99.90
21189;DHT22;39071;52.420;20.896;2023-03-01T03:37:47;-3.00;99.90
21189;DHT22;39071;52.420;20.896;2023-03-01T03:40:37;-3.00;99.90
21189;DHT22;39071;52.420;20.896;2023-03-01T03:43:09;-3.00;99.90
21189;DHT22;39071;52.420;20.896;2023-03-01T03:45:36;-2.90;62.30
21189;DHT22;39071;52.420;20.896;2023-03-01T03:48:04;-2.90;54.90
21189;DHT22;39071;52.420;20.896;2023-03-01T03:50:30;-2.80;80.40
21189;DHT22;39071;52.420;20.896;2023-03-01T03:52:56;-2.60;43.60
21189;DHT22;39071;52.420;20.896;2023-03-01T03:55:22;-2.60;99.90
21189;DHT22;39071;52.420;20.896;2023-03-01T03:57:48;-2.60;95.10
21189;DHT22;39071;52.420;20.896;2023-03-01T04:00:21;-2.60;99.90
21189;DHT22;39071;52.420;20.896;2023-03-01T04:02:50;-2.70;99.90
21189;DHT22;39071;52.420;20.896;2023-03-01T04:05:18;-2.40;99.90
21189;DHT22;39071;52.420;20.896;2023-03-01T04:07:44;-2.80;99.90
21189;DHT22;39071;52.420;20.896;2023-03-01T04:10:19;-2.90;99.90
21189;DHT22;39071;52.420;20.896;2023-03-01T04:12:45;-2.90;1.00
21189;DHT22;39071;52.420;20.896;2023-03-01T04:15:11;-2.90;1.00
21189;DHT22;39071;52.420;20.896;2023-03-01T04:17:44;-2.70;99.90
21189;DHT22;39071;52.420;20.896;2023-03-01T04:20:16;-2.40;1.00
21189;DHT22;39071;52.420;20.896;2023-03-01T04:22:52;-2.70;99.90
21189;DHT22;39071;52.420;20.896;2023-03-01T04:25:18;-2.60;99.90
21189;DHT22;39071;52.420;20.896;2023-03-01T04:27:44;-2.30;99.90
21189;DHT22;39071;52.420;20.896;2023-03-01T04:30:10;-2.60;99.90
21189;DHT22;39071;52.420;20.896;2023-03-01T04:32:36;-2.50;99.90
21189;DHT22;39071;52.420;20.896;2023-03-01T04:35:02;-2.50;71.10
21189;DHT22;39071;52.420;20.896;2023-03-01T04:37:27;-2.60;99.90
21189;DHT22;39071;52.420;20.896;2023-03-01T04:39:53;-2.50;99.90
21189;DHT22;39071;52.420;20.896;2023-03-01T04:42:19;-2.50;99.90
21189;DHT22;39071;52.420;20.896;2023-03-01T04:44:45;-2.50;99.90
21189;DHT22;39071;52.420;20.896;2023-03-01T04:47:12;-2.40;80.60
21189;DHT22;39071;52.420;20.896;2023-03-01T04:49:38;-2.40;5.50
21189;DHT22;39071;52.420;20.896;2023-03-01T04:52:04;-2.40;1.00
21189;DHT22;39071;52.420;20.896;2023-03-01T04:54:34;-2.60;93.50
21189;DHT22;39071;52.420;20.896;2023-03-01T04:57:01;-2.60;99.90
21189;DHT22;39071;52.420;20.896;2023-03-01T04:59:28;-2.60;99.90
21189;DHT22;39071;52.420;20.896;2023-03-01T05:01:55;-2.70;99.90
21189;DHT22;39071;52.420;20.896;2023-03-01T05:04:24;-2.80;1.00
21189;DHT22;39071;52.420;20.896;2023-03-01T05:06:51;-2.80;1.00
21189;DHT22;39071;52.420;20.896;2023-03-01T05:09:16;-2.80;1.00
21189;DHT22;39071;52.420;20.896;2023-03-01T05:11:42;-2.70;1.00
21189;DHT22;39071;52.420;20.896;2023-03-01T05:14:09;-2.60;1.00
21189;DHT22;39071;52.420;20.896;2023-03-01T05:16:36;-2.60;1.00
21189;DHT22;39071;52.420;20.896;2023-03-01T05:19:03;-1.90;1.00
21189;DHT22;39071;52.420;20.896;2023-03-01T05:21:39;-2.50;99.90
21189;DHT22;39071;52.420;20.896;2023-03-01T05:24:25;-2.60;99.90
21189;DHT22;39071;52.420;20.896;2023-03-01T05:26:51;-2.60;99.90
21189;DHT22;39071;52.420;20.896;2023-03-01T05:29:18;-2.50;99.90
21189;DHT22;39071;52.420;20.896;2023-03-01T05:31:52;-2.50;99.90
21189;DHT22;39071;52.420;20.896;2023-03-01T05:34:22;-2.40;99.90
21189;DHT22;39071;52.420;20.896;2023-03-01T05:36:48;-2.30;99.90
21189;DHT22;39071;52.420;20.896;2023-03-01T05:39:14;-2.30;99.90
21189;DHT22;39071;52.420;20.896;2023-03-01T05:41:39;-2.30;54.80
21189;DHT22;39071;52.420;20.896;2023-03-01T05:44:06;-2.20;5.50
21189;DHT22;39071;52.420;20.896;2023-03-01T05:46:32;-2.20;1.00
21189;DHT22;39071;52.420;20.896;2023-03-01T05:48:58;-2.20;1.00
21189;DHT22;39071;52.420;20.896;2023-03-01T05:51:23;-2.10;1.00
21189;DHT22;39071;52.420;20.896;2023-03-01T05:53:49;-2.10;1.00
21189;DHT22;39071;52.420;20.896;2023-03-01T05:56:15;-2.00;58.40
21189;DHT22;39071;52.420;20.896;2023-03-01T05:58:41;-1.90;99.90
21189;DHT22;39071;52.420;20.896;2023-03-01T06:01:11;-1.80;99.90
21189;DHT22;39071;52.420;20.896;2023-03-01T06:03:38;-1.60;56.30
21189;DHT22;39071;52.420;20.896;2023-03-01T06:06:04;-1.60;30.90
21189;DHT22;39071;52.420;20.896;2023-03-01T06:08:30;-1.60;1.00
21189;DHT22;39071;52.420;20.896;2023-03-01T06:10:56;-1.40;1.00
21189;DHT22;39071;52.420;20.896;2023-03-01T06:13:23;-1.30;1.00
21189;DHT22;39071;52.420;20.896;2023-03-01T06:15:49;-1.20;1.00
21189;DHT22;39071;52.420;20.896;2023-03-01T06:18:14;-1.10;1.00
21189;DHT22;39071;52.420;20.896;2023-03-01T06:20:40;-1.10;1.00
21189;DHT22;39071;52.420;20.896;2023-03-01T06:23:06;-0.90;1.00
21189;DHT22;39071;52.420;20.896;2023-03-01T06:25:32;-0.80;1.00
21189;DHT22;39071;52.420;20.896;2023-03-01T06:27:57;-0.30;1.00
21189;DHT22;39071;52.420;20.896;2023-03-01T06:30:25;-0.50;1.00
21189;DHT22;39071;52.420;20.896;2023-03-01T06:32:51;-0.20;1.00
21189;DHT22;39071;52.420;20.896;2023-03-01T06:35:18;0.00;1.00
21189;DHT22;39071;52.420;20.896;2023-03-01T06:37:45;0.10;1.00
21189;DHT22;39071;52.420;20.896;2023-03-01T06:40:12;0.30;1.00
21189;DHT22;39071;52.420;20.896;2023-03-01T06:42:40;0.50;1.00
21189;DHT22;39071;52.420;20.896;2023-03-01T06:45:07;0.70;1.00
21189;DHT22;39071;52.420;20.896;2023-03-01T06:47:33;0.80;1.00
21189;DHT22;39071;52.420;20.896;2023-03-01T06:50:00;1.00;99.90
21189;DHT22;39071;52.420;20.896;2023-03-01T06:52:26;1.20;99.90
21189;DHT22;39071;52.420;20.896;2023-03-01T06:54:51;1.30;99.90
21189;DHT22;39071;52.420;20.896;2023-03-01T06:57:17;1.40;99.90
21189;DHT22;39071;52.420;20.896;2023-03-01T06:59:43;1.50;99.90
21189;DHT22;39071;52.420;20.896;2023-03-01T07:02:12;1.70;99.90
21189;DHT22;39071;52.420;20.896;2023-03-01T07:04:39;2.00;99.90
21189;DHT22;39071;52.420;20.896;2023-03-01T07:07:05;2.50;99.90
21189;DHT22;39071;52.420;20.896;2023-03-01T07:09:31;3.10;99.90
21189;DHT22;39071;52.420;20.896;2023-03-01T07:11:57;3.80;94.00
21189;DHT22;39071;52.420;20.896;2023-03-01T07:14:23;4.00;15.50
21189;DHT22;39071;52.420;20.896;2023-03-01T07:16:52;4.20;1.00
21189;DHT22;39071;52.420;20.896;2023-03-01T07:19:19;4.80;1.00
21189;DHT22;39071;52.420;20.896;2023-03-01T07:21:44;5.60;1.00
21189;DHT22;39071;52.420;20.896;2023-03-01T07:24:11;5.90;1.00
21189;DHT22;39071;52.420;20.896;2023-03-01T07:26:37;6.20;1.00
21189;DHT22;39071;52.420;20.896;2023-03-01T07:29:05;6.40;1.00
21189;DHT22;39071;52.420;20.896;2023-03-01T07:31:31;7.00;1.00
21189;DHT22;39071;52.420;20.896;2023-03-01T07:33:57;7.80;1.00
21189;DHT22;39071;52.420;20.896;2023-03-01T07:36:23;8.00;1.00
21189;DHT22;39071;52.420;20.896;2023-03-01T07:38:50;8.30;1.00
21189;DHT22;39071;52.420;20.896;2023-03-01T07:41:15;8.70;1.00
21189;DHT22;39071;52.420;20.896;2023-03-01T07:43:41;9.30;1.00
21189;DHT22;39071;52.420;20.896;2023-03-01T07:46:07;9.70;1.00
21189;DHT22;39071;52.420;20.896;2023-03-01T07:48:33;10.10;1.00
21189;DHT22;39071;52.420;20.896;2023-03-01T07:51:04;10.00;1.00
21189;DHT22;39071;52.420;20.896;2023-03-01T07:53:31;9.80;1.00
21189;DHT22;39071;52.420;20.896;2023-03-01T07:56:05;9.60;1.00
21189;DHT22;39071;52.420;20.896;2023-03-01T07:58:33;9.90;1.00
21189;DHT22;39071;52.420;20.896;2023-03-01T08:01:03;10.00;1.00
21189;DHT22;39071;52.420;20.896;2023-03-01T08:03:29;10.40;1.00
21189;DHT22;39071;52.420;20.896;2023-03-01T08:05:55;10.50;1.00
21189;DHT22;39071;52.420;20.896;2023-03-01T08:08:21;10.40;1.00
21189;DHT22;39071;52.420;20.896;2023-03-01T08:10:47;10.00;1.00
21189;DHT22;39071;52.420;20.896;2023-03-01T08:13:13;9.70;1.00
21189;DHT22;39071;52.420;20.896;2023-03-01T08:15:39;9.60;1.00
21189;DHT22;39071;52.420;20.896;2023-03-01T08:18:04;9.40;1.00
21189;DHT22;39071;52.420;20.896;2023-03-01T08:20:32;9.00;1.00
21189;DHT22;39071;52.420;20.896;2023-03-01T08:22:58;8.70;1.00
21189;DHT22;39071;52.420;20.896;2023-03-01T08:25:23;8.60;1.00
21189;DHT22;39071;52.420;20.896;2023-03-01T08:27:49;8.30;1.00
21189;DHT22;39071;52.420;20.896;2023-03-01T08:30:15;8.00;1.00
21189;DHT22;39071;52.420;20.896;2023-03-01T08:32:41;7.60;1.00
21189;DHT22;39071;52.420;20.896;2023-03-01T08:35:07;7.40;1.00
21189;DHT22;39071;52.420;20.896;2023-03-01T08:37:33;7.40;1.00
21189;DHT22;39071;52.420;20.896;2023-03-01T08:40:00;7.40;1.00
21189;DHT22;39071;52.420;20.896;2023-03-01T08:42:26;7.70;1.00
21189;DHT22;39071;52.420;20.896;2023-03-01T08:44:52;7.80;1.00
21189;DHT22;39071;52.420;20.896;2023-03-01T08:47:18;8.00;1.00
21189;DHT22;39071;52.420;20.896;2023-03-01T08:49:43;7.70;1.00
21189;DHT22;39071;52.420;20.896;2023-03-01T08:52:09;7.60;1.00
21189;DHT22;39071;52.420;20.896;2023-03-01T08:54:36;7.60;1.00
21189;DHT22;39071;52.420;20.896;2023-03-01T08:57:03;7.70;1.00
21189;DHT22;39071;52.420;20.896;2023-03-01T08:59:28;7.70;1.00
21189;DHT22;39071;52.420;20.896;2023-03-01T09:01:55;7.80;1.00
21189;DHT22;39071;52.420;20.896;2023-03-01T09:04:21;7.90;1.00
21189;DHT22;39071;52.420;20.896;2023-03-01T09:06:47;8.10;1.00
21189;DHT22;39071;52.420;20.896;2023-03-01T09:09:16;8.20;1.00
21189;DHT22;39071;52.420;20.896;2023-03-01T09:11:43;8.20;1.00
21189;DHT22;39071;52.420;20.896;2023-03-01T09:14:11;8.20;1.00
21189;DHT22;39071;52.420;20.896;2023-03-01T09:16:38;8.20;1.00
21189;DHT22;39071;52.420;20.896;2023-03-01T09:19:04;8.20;1.00
21189;DHT22;39071;52.420;20.896;2023-03-01T09:21:30;8.20;1.00
21189;DHT22;39071;52.420;20.896;2023-03-01T09:23:57;8.30;1.00
21189;DHT22;39071;52.420;20.896;2023-03-01T09:26:23;8.10;1.00
21189;DHT22;39071;52.420;20.896;2023-03-01T09:28:51;8.20;1.00
21189;DHT22;39071;52.420;20.896;2023-03-01T09:31:19;8.20;1.00
21189;DHT22;39071;52.420;20.896;2023-03-01T09:33:47;8.30;1.00
21189;DHT22;39071;52.420;20.896;2023-03-01T09:36:16;8.40;1.00
21189;DHT22;39071;52.420;20.896;2023-03-01T09:38:42;8.50;1.00
21189;DHT22;39071;52.420;20.896;2023-03-01T09:41:51;8.50;1.00
21189;DHT22;39071;52.420;20.896;2023-03-01T09:47:22;9.20;1.00
21189;DHT22;39071;52.420;20.896;2023-03-01T10:00:30;10.20;1.00
21189;DHT22;39071;52.420;20.896;2023-03-01T10:03:03;10.20;1.00
21189;DHT22;39071;52.420;20.896;2023-03-01T10:05:43;10.20;1.00
21189;DHT22;39071;52.420;20.896;2023-03-01T10:08:36;10.30;1.00
21189;DHT22;39071;52.420;20.896;2023-03-01T10:11:12;10.30;1.00
21189;DHT22;39071;52.420;20.896;2023-03-01T10:15:00;10.50;1.00
21189;DHT22;39071;52.420;20.896;2023-03-01T10:19:45;10.60;1.00
21189;DHT22;39071;52.420;20.896;2023-03-01T10:24:39;10.50;1.00
21189;DHT22;39071;52.420;20.896;2023-03-01T10:27:12;10.50;1.00
21189;DHT22;39071;52.420;20.896;2023-03-01T10:30:05;10.50;1.00
21189;DHT22;39071;52.420;20.896;2023-03-01T10:32:33;10.70;1.00
21189;DHT22;39071;52.420;20.896;2023-03-01T10:34:59;10.80;1.00
21189;DHT22;39071;52.420;20.896;2023-03-01T10:37:25;10.80;1.00
21189;DHT22;39071;52.420;20.896;2023-03-01T10:40:03;11.00;1.00
21189;DHT22;39071;52.420;20.896;2023-03-01T10:42:39;10.90;1.00
21189;DHT22;39071;52.420;20.896;2023-03-01T10:45:38;11.10;1.00
21189;DHT22;39071;52.420;20.896;2023-03-01T10:48:16;11.00;1.00
21189;DHT22;39071;52.420;20.896;2023-03-01T10:50:46;11.00;1.00
21189;DHT22;39071;52.420;20.896;2023-03-01T10:53:22;11.10;1.00
21189;DHT22;39071;52.420;20.896;2023-03-01T10:56:12;11.10;1.00
21189;DHT22;39071;52.420;20.896;2023-03-01T10:59:03;10.80;1.00
21189;DHT22;39071;52.420;20.896;2023-03-01T11:01:32;11.00;1.00
21189;DHT22;39071;52.420;20.896;2023-03-01T11:04:18;11.20;1.00
21189;DHT22;39071;52.420;20.896;2023-03-01T11:06:43;11.20;1.00
21189;DHT22;39071;52.420;20.896;2023-03-01T11:09:24;11.00;1.00
21189;DHT22;39071;52.420;20.896;2023-03-01T11:11:57;11.30;1.00
21189;DHT22;39071;52.420;20.896;2023-03-01T11:14:30;11.30;1.00
21189;DHT22;39071;52.420;20.896;2023-03-01T11:19:38;11.20;1.00
21189;DHT22;39071;52.420;20.896;2023-03-01T11:22:16;11.10;1.00
21189;DHT22;39071;52.420;20.896;2023-03-01T11:24:49;11.30;1.00
21189;DHT22;39071;52.420;20.896;2023-03-01T11:29:57;11.50;1.00
21189;DHT22;39071;52.420;20.896;2023-03-01T11:32:28;11.30;1.00
21189;DHT22;39071;52.420;20.896;2023-03-01T11:35:17;11.30;1.00
21189;DHT22;39071;52.420;20.896;2023-03-01T11:46:02;10.90;1.00
21189;DHT22;39071;52.420;20.896;2023-03-01T11:48:40;11.20;1.00
21189;DHT22;39071;52.420;20.896;2023-03-01T11:51:15;11.40;1.00
21189;DHT22;39071;52.420;20.896;2023-03-01T11:58:58;11.50;1.00
21189;DHT22;39071;52.420;20.896;2023-03-01T12:04:15;11.50;1.00
21189;DHT22;39071;52.420;20.896;2023-03-01T12:06:59;11.40;1.00
21189;DHT22;39071;52.420;20.896;2023-03-01T12:09:30;11.50;1.00
21189;DHT22;39071;52.420;20.896;2023-03-01T12:15:09;11.70;1.00
21189;DHT22;39071;52.420;20.896;2023-03-01T12:20:45;11.80;1.00
21189;DHT22;39071;52.420;20.896;2023-03-01T12:25:48;11.40;1.00
21189;DHT22;39071;52.420;20.896;2023-03-01T12:29:15;11.40;1.00
21189;DHT22;39071;52.420;20.896;2023-03-01T12:36:52;11.60;1.00
21189;DHT22;39071;52.420;20.896;2023-03-01T12:42:31;11.40;1.00
21189;DHT22;39071;52.420;20.896;2023-03-01T12:45:30;11.30;1.00
21189;DHT22;39071;52.420;20.896;2023-03-01T12:50:44;10.90;1.00
21189;DHT22;39071;52.420;20.896;2023-03-01T12:53:23;10.70;1.00
21189;DHT22;39071;52.420;20.896;2023-03-01T12:55:53;10.70;1.00
21189;DHT22;39071;52.420;20.896;2023-03-01T13:04:17;10.60;1.00
21189;DHT22;39071;52.420;20.896;2023-03-01T13:09:49;10.70;1.00
21189;DHT22;39071;52.420;20.896;2023-03-01T13:17:54;10.30;1.00
21189;DHT22;39071;52.420;20.896;2023-03-01T13:20:30;10.30;1.00
21189;DHT22;39071;52.420;20.896;2023-03-01T13:34:03;10.30;1.00
21189;DHT22;39071;52.420;20.896;2023-03-01T13:39:28;10.40;1.00
21189;DHT22;39071;52.420;20.896;2023-03-01T13:41:57;10.10;1.00
21189;DHT22;39071;52.420;20.896;2023-03-01T13:46:55;10.10;1.00
21189;DHT22;39071;52.420;20.896;2023-03-01T13:49:27;9.90;1.00
21189;DHT22;39071;52.420;20.896;2023-03-01T13:51:54;10.00;1.00
21189;DHT22;39071;52.420;20.896;2023-03-01T13:54:31;10.00;1.00
21189;DHT22;39071;52.420;20.896;2023-03-01T13:56:59;10.00;1.00
21189;DHT22;39071;52.420;20.896;2023-03-01T13:59:26;10.00;1.00
21189;DHT22;39071;52.420;20.896;2023-03-01T14:01:57;10.00;1.00
21189;DHT22;39071;52.420;20.896;2023-03-01T14:04:27;9.90;1.00
21189;DHT22;39071;52.420;20.896;2023-03-01T14:07:16;9.80;1.00
21189;DHT22;39071;52.420;20.896;2023-03-01T14:09:45;9.80;1.00
21189;DHT22;39071;52.420;20.896;2023-03-01T14:17:31;9.50;1.00
21189;DHT22;39071;52.420;20.896;2023-03-01T14:22:49;9.50;1.00
21189;DHT22;39071;52.420;20.896;2023-03-01T14:25:31;9.60;1.00
21189;DHT22;39071;52.420;20.896;2023-03-01T14:28:16;9.50;1.00
21189;DHT22;39071;52.420;20.896;2023-03-01T14:30:47;9.50;1.00
21189;DHT22;39071;52.420;20.896;2023-03-01T14:33:25;9.40;1.00
21189;DHT22;39071;52.420;20.896;2023-03-01T14:36:06;9.30;1.00
21189;DHT22;39071;52.420;20.896;2023-03-01T14:38:43;9.40;1.00
21189;DHT22;39071;52.420;20.896;2023-03-01T14:41:14;9.30;1.00
21189;DHT22;39071;52.420;20.896;2023-03-01T14:46:24;9.00;1.00
21189;DHT22;39071;52.420;20.896;2023-03-01T14:48:54;9.00;1.00
21189;DHT22;39071;52.420;20.896;2023-03-01T14:51:21;9.00;1.00
21189;DHT22;39071;52.420;20.896;2023-03-01T14:53:47;8.90;1.00
21189;DHT22;39071;52.420;20.896;2023-03-01T14:56:15;8.80;1.00
21189;DHT22;39071;52.420;20.896;2023-03-01T14:58:45;8.80;1.00
21189;DHT22;39071;52.420;20.896;2023-03-01T15:01:16;8.60;1.00
21189;DHT22;39071;52.420;20.896;2023-03-01T15:03:45;8.50;1.00
21189;DHT22;39071;52.420;20.896;2023-03-01T15:06:15;8.40;1.00
21189;DHT22;39071;52.420;20.896;2023-03-01T15:08:46;8.30;1.00
21189;DHT22;39071;52.420;20.896;2023-03-01T15:11:29;8.30;1.00
21189;DHT22;39071;52.420;20.896;2023-03-01T15:13:54;8.10;1.00
21189;DHT22;39071;52.420;20.896;2023-03-01T15:16:26;8.10;1.00
21189;DHT22;39071;52.420;20.896;2023-03-01T15:19:02;8.10;1.00
21189;DHT22;39071;52.420;20.896;2023-03-01T15:21:33;8.10;1.00
21189;DHT22;39071;52.420;20.896;2023-03-01T15:27:12;8.10;1.00
21189;DHT22;39071;52.420;20.896;2023-03-01T15:29:34;8.10;1.00
21189;DHT22;39071;52.420;20.896;2023-03-01T15:32:34;8.00;1.00
21189;DHT22;39071;52.420;20.896;2023-03-01T15:35:41;7.80;1.00
21189;DHT22;39071;52.420;20.896;2023-03-01T15:40:56;7.60;1.00
21189;DHT22;39071;52.420;20.896;2023-03-01T15:43:40;7.50;1.00
21189;DHT22;39071;52.420;20.896;2023-03-01T15:46:20;7.40;1.00
21189;DHT22;39071;52.420;20.896;2023-03-01T15:48:49;7.30;1.00
21189;DHT22;39071;52.420;20.896;2023-03-01T15:51:18;7.20;1.00
21189;DHT22;39071;52.420;20.896;2023-03-01T15:53:50;7.20;1.00
21189;DHT22;39071;52.420;20.896;2023-03-01T15:56:17;7.00;1.00
21189;DHT22;39071;52.420;20.896;2023-03-01T15:58:42;6.90;1.00
21189;DHT22;39071;52.420;20.896;2023-03-01T16:01:12;6.80;1.00
21189;DHT22;39071;52.420;20.896;2023-03-01T16:03:38;6.70;1.50
21189;DHT22;39071;52.420;20.896;2023-03-01T16:06:04;6.60;16.30
21189;DHT22;39071;52.420;20.896;2023-03-01T16:08:30;6.60;31.40
21189;DHT22;39071;52.420;20.896;2023-03-01T16:10:56;6.50;46.10
21189;DHT22;39071;52.420;20.896;2023-03-01T16:13:22;6.40;51.00
21189;DHT22;39071;52.420;20.896;2023-03-01T16:15:47;6.30;67.20
21189;DHT22;39071;52.420;20.896;2023-03-01T16:18:13;6.20;99.90
21189;DHT22;39071;52.420;20.896;2023-03-01T16:20:40;6.00;99.90
21189;DHT22;39071;52.420;20.896;2023-03-01T16:23:08;5.60;99.90
21189;DHT22;39071;52.420;20.896;2023-03-01T16:25:36;5.50;99.90
21189;DHT22;39071;52.420;20.896;2023-03-01T16:28:03;5.40;99.90
21189;DHT22;39071;52.420;20.896;2023-03-01T16:30:34;5.30;99.90
21189;DHT22;39071;52.420;20.896;2023-03-01T16:33:00;5.30;99.90
21189;DHT22;39071;52.420;20.896;2023-03-01T16:35:26;5.00;99.90
21189;DHT22;39071;52.420;20.896;2023-03-01T16:37:52;4.70;99.90
21189;DHT22;39071;52.420;20.896;2023-03-01T16:40:27;4.50;1.00
21189;DHT22;39071;52.420;20.896;2023-03-01T16:42:55;4.40;1.00
21189;DHT22;39071;52.420;20.896;2023-03-01T16:45:25;4.20;1.00
21189;DHT22;39071;52.420;20.896;2023-03-01T16:47:52;4.10;1.00
21189;DHT22;39071;52.420;20.896;2023-03-01T16:50:18;4.00;1.00
21189;DHT22;39071;52.420;20.896;2023-03-01T16:52:44;3.90;1.00
21189;DHT22;39071;52.420;20.896;2023-03-01T16:55:10;3.90;1.00
21189;DHT22;39071;52.420;20.896;2023-03-01T16:57:38;3.80;1.00
21189;DHT22;39071;52.420;20.896;2023-03-01T17:00:08;3.60;1.00
21189;DHT22;39071;52.420;20.896;2023-03-01T17:02:39;3.50;1.00
21189;DHT22;39071;52.420;20.896;2023-03-01T17:05:07;3.40;1.00
21189;DHT22;39071;52.420;20.896;2023-03-01T17:07:33;3.30;1.00
21189;DHT22;39071;52.420;20.896;2023-03-01T17:10:03;3.20;34.60
21189;DHT22;39071;52.420;20.896;2023-03-01T17:12:30;3.00;99.90
21189;DHT22;39071;52.420;20.896;2023-03-01T17:14:57;2.80;99.90
21189;DHT22;39071;52.420;20.896;2023-03-01T17:17:23;2.80;1.00
21189;DHT22;39071;52.420;20.896;2023-03-01T17:19:50;2.70;99.90
21189;DHT22;39071;52.420;20.896;2023-03-01T17:22:16;2.60;99.90
21189;DHT22;39071;52.420;20.896;2023-03-01T17:24:43;2.60;1.00
21189;DHT22;39071;52.420;20.896;2023-03-01T17:27:09;2.60;1.00
21189;DHT22;39071;52.420;20.896;2023-03-01T17:29:37;2.60;99.90
21189;DHT22;39071;52.420;20.896;2023-03-01T17:32:03;2.50;99.90
21189;DHT22;39071;52.420;20.896;2023-03-01T17:34:30;2.50;99.90
21189;DHT22;39071;52.420;20.896;2023-03-01T17:36:56;2.30;99.90
21189;DHT22;39071;52.420;20.896;2023-03-01T17:39:22;2.30;1.00
21189;DHT22;39071;52.420;20.896;2023-03-01T17:41:53;2.30;1.00
21189;DHT22;39071;52.420;20.896;2023-03-01T17:44:19;2.30;99.90